createdAt,value
2017-04-12T00:00:48.778Z,58.60
2017-04-12T00:01:47.268Z,58.40
2017-04-12T00:02:45.692Z,58.50
2017-04-12T00:03:44.195Z,58.60
2017-04-12T00:04:42.604Z,58.40
2017-04-12T00:05:41.746Z,58.40
2017-04-12T00:06:40.804Z,58.70
2017-04-12T00:07:39.208Z,59.10
2017-04-12T00:08:37.686Z,59.20
2017-04-12T00:09:37.185Z,59.30
2017-04-12T00:10:35.733Z,59.50
2017-04-12T00:11:34.933Z,59.70
2017-04-12T00:12:33.303Z,59.40
2017-04-12T00:13:32.312Z,59.40
2017-04-12T00:14:31.433Z,59.70
2017-04-12T00:15:29.917Z,59.90
2017-04-12T00:16:28.320Z,60.00
2017-04-12T00:17:26.743Z,60.50
2017-04-12T00:18:25.155Z,60.30
2017-04-12T00:19:23.602Z,60.20
2017-04-12T00:20:22.107Z,60.00
2017-04-12T00:21:21.159Z,60.20
2017-04-12T00:22:22.357Z,60.60
2017-04-12T00:23:21.643Z,60.60
2017-04-12T00:24:20.007Z,60.70
2017-04-12T00:25:18.406Z,60.70
2017-04-12T00:26:16.804Z,60.40
2017-04-12T00:27:15.257Z,60.10
2017-04-12T00:28:13.689Z,60.30
2017-04-12T00:29:12.077Z,60.70
2017-04-12T00:30:10.480Z,61.00
2017-04-12T00:31:08.894Z,61.30
2017-04-12T00:32:07.321Z,61.30
2017-04-12T00:33:06.548Z,61.20
2017-04-12T00:34:05.694Z,61.20
2017-04-12T00:35:04.079Z,61.50
2017-04-12T00:36:02.563Z,61.30
2017-04-12T00:37:00.942Z,61.40
2017-04-12T00:38:00.067Z,61.30
2017-04-12T00:38:58.488Z,61.20
2017-04-12T00:39:57.678Z,61.20
2017-04-12T00:40:56.806Z,61.40
2017-04-12T00:41:55.228Z,61.90
2017-04-12T00:42:53.631Z,62.20
2017-04-12T00:43:52.079Z,62.50
2017-04-12T00:44:51.321Z,62.70
2017-04-12T00:45:49.687Z,62.80
2017-04-12T00:46:48.143Z,63.20
2017-04-12T00:47:46.569Z,62.90
2017-04-12T00:48:45.099Z,63.30
2017-04-12T00:49:43.522Z,63.40
2017-04-12T00:50:41.969Z,63.50
2017-04-12T00:51:40.371Z,63.50
2017-04-12T00:52:39.449Z,63.50
2017-04-12T00:53:37.877Z,63.30
2017-04-12T00:54:36.315Z,63.30
2017-04-12T00:55:34.702Z,63.10
2017-04-12T00:56:33.165Z,63.00
2017-04-12T00:57:31.634Z,62.80
2017-04-12T00:58:30.099Z,62.50
2017-04-12T00:59:28.480Z,62.20
2017-04-12T01:00:26.912Z,61.90
2017-04-12T01:01:25.371Z,61.20
2017-04-12T01:02:24.698Z,61.10
2017-04-12T01:03:23.140Z,61.20
2017-04-12T01:04:21.582Z,62.00
2017-04-12T01:05:20.032Z,61.00
2017-04-12T01:06:18.425Z,60.70
2017-04-12T01:07:16.890Z,60.70
2017-04-12T01:08:15.300Z,60.90
2017-04-12T01:09:13.809Z,60.60
2017-04-12T01:10:12.354Z,61.00
2017-04-12T01:11:10.765Z,61.30
2017-04-12T01:12:09.216Z,61.60
2017-04-12T01:13:07.664Z,62.00
2017-04-12T01:14:06.097Z,62.00
2017-04-12T01:15:05.234Z,62.00
2017-04-12T01:16:03.629Z,62.00
2017-04-12T01:17:02.192Z,62.10
2017-04-12T01:18:00.635Z,61.90
2017-04-12T01:18:59.105Z,61.70
2017-04-12T01:19:57.554Z,61.50
2017-04-12T01:20:55.935Z,61.60
2017-04-12T01:21:54.308Z,61.00
2017-04-12T01:22:52.776Z,60.70
2017-04-12T01:23:51.198Z,60.90
2017-04-12T01:24:49.643Z,61.10
2017-04-12T01:25:48.064Z,61.10
2017-04-12T01:26:46.447Z,61.60
2017-04-12T01:27:44.835Z,62.40
2017-04-12T01:28:43.261Z,63.40
2017-04-12T01:29:42.403Z,64.20
2017-04-12T01:30:40.868Z,64.70
2017-04-12T01:31:39.248Z,64.90
2017-04-12T01:32:37.649Z,65.30
2017-04-12T01:33:36.078Z,65.20
2017-04-12T01:34:34.498Z,65.40
2017-04-12T01:35:32.889Z,65.60
2017-04-12T01:36:31.317Z,65.70
2017-04-12T01:37:29.697Z,66.60
2017-04-12T01:38:28.851Z,65.60
2017-04-12T01:39:27.302Z,65.40
2017-04-12T01:40:26.067Z,65.10
2017-04-12T01:41:24.881Z,65.00
2017-04-12T01:42:23.307Z,64.90
2017-04-12T01:43:21.738Z,64.90
2017-04-12T01:44:21.120Z,65.00
2017-04-12T01:45:19.576Z,65.10
2017-04-12T01:46:17.970Z,65.20
2017-04-12T01:47:16.343Z,65.00
2017-04-12T01:48:14.788Z,64.50
2017-04-12T01:49:13.185Z,64.40
2017-04-12T01:50:12.406Z,64.30
2017-04-12T01:51:10.791Z,64.50
2017-04-12T01:52:09.193Z,64.90
2017-04-12T01:53:07.645Z,65.10
2017-04-12T01:54:06.101Z,65.30
2017-04-12T01:55:04.491Z,65.50
2017-04-12T01:56:03.892Z,65.50
2017-04-12T01:57:03.239Z,65.50
2017-04-12T01:58:01.687Z,65.60
2017-04-12T01:59:00.819Z,65.70
2017-04-12T01:59:59.232Z,65.90
2017-04-12T02:00:58.381Z,66.20
2017-04-12T02:01:57.012Z,66.50
2017-04-12T02:02:55.486Z,67.00
2017-04-12T02:03:53.942Z,66.60
2017-04-12T02:04:52.407Z,66.50
2017-04-12T02:05:50.863Z,66.60
2017-04-12T02:06:49.286Z,66.30
2017-04-12T02:07:47.761Z,66.40
2017-04-12T02:08:46.230Z,66.40
2017-04-12T02:09:44.695Z,66.50
2017-04-12T02:10:43.170Z,66.70
2017-04-12T02:11:41.585Z,66.80
2017-04-12T02:12:40.062Z,66.70
2017-04-12T02:13:39.216Z,66.50
2017-04-12T02:14:37.595Z,66.30
2017-04-12T02:15:36.072Z,65.80
2017-04-12T02:16:34.531Z,65.60
2017-04-12T02:17:32.961Z,65.40
2017-04-12T02:18:31.676Z,65.30
2017-04-12T02:19:30.133Z,65.20
2017-04-12T02:20:28.524Z,65.30
2017-04-12T02:21:26.955Z,65.00
2017-04-12T02:22:25.659Z,65.00
2017-04-12T02:23:24.089Z,64.90
2017-04-12T02:24:22.505Z,65.00
2017-04-12T02:25:20.930Z,65.10
2017-04-12T02:26:19.698Z,65.20
2017-04-12T02:27:18.130Z,65.00
2017-04-12T02:28:16.559Z,65.30
2017-04-12T02:29:14.968Z,65.50
2017-04-12T02:30:13.387Z,65.60
2017-04-12T02:31:11.770Z,65.70
2017-04-12T02:32:10.567Z,65.50
2017-04-12T02:33:09.012Z,65.10
2017-04-12T02:34:07.386Z,65.00
2017-04-12T02:35:05.815Z,65.00
2017-04-12T02:36:05.351Z,64.90
2017-04-12T02:37:03.733Z,65.00
2017-04-12T02:38:02.170Z,65.00
2017-04-12T02:39:00.942Z,65.00
2017-04-12T02:40:00.143Z,64.70
2017-04-12T02:40:58.593Z,64.80
2017-04-12T02:41:57.010Z,65.20
2017-04-12T02:42:55.420Z,65.50
2017-04-12T02:43:54.598Z,65.70
2017-04-12T02:44:53.284Z,65.90
2017-04-12T02:45:52.417Z,65.90
2017-04-12T02:46:50.802Z,65.90
2017-04-12T02:47:49.231Z,65.90
2017-04-12T02:48:47.640Z,65.90
2017-04-12T02:49:46.029Z,65.70
2017-04-12T02:50:44.461Z,65.40
2017-04-12T02:51:42.907Z,64.80
2017-04-12T02:52:41.309Z,64.60
2017-04-12T02:53:39.789Z,64.30
2017-04-12T02:54:38.243Z,64.30
2017-04-12T02:55:36.671Z,64.00
2017-04-12T02:56:35.802Z,64.50
2017-04-12T02:57:34.183Z,65.00
2017-04-12T02:58:32.588Z,65.70
2017-04-12T02:59:31.011Z,66.00
2017-04-12T03:00:29.438Z,66.40
2017-04-12T03:01:29.197Z,66.60
2017-04-12T03:02:28.656Z,66.80
2017-04-12T03:03:27.087Z,66.90
2017-04-12T03:04:25.475Z,67.10
2017-04-12T03:05:23.877Z,67.20
2017-04-12T03:06:22.310Z,67.10
2017-04-12T03:07:21.617Z,66.70
2017-04-12T03:08:20.090Z,66.20
2017-04-12T03:09:18.530Z,66.20
2017-04-12T03:10:17.423Z,66.20
2017-04-12T03:11:16.582Z,66.20
2017-04-12T03:12:14.964Z,66.10
2017-04-12T03:13:13.393Z,66.00
2017-04-12T03:14:11.853Z,66.00
2017-04-12T03:15:10.595Z,66.00
2017-04-12T03:16:08.999Z,65.80
2017-04-12T03:17:07.378Z,65.70
2017-04-12T03:18:05.826Z,65.60
2017-04-12T03:19:04.211Z,65.70
2017-04-12T03:20:02.669Z,65.50
2017-04-12T03:21:01.071Z,65.40
2017-04-12T03:21:59.458Z,64.60
2017-04-12T03:22:57.920Z,64.30
2017-04-12T03:23:56.318Z,65.00
2017-04-12T03:24:54.706Z,65.60
2017-04-12T03:25:53.123Z,66.00
2017-04-12T03:26:51.578Z,66.10
2017-04-12T03:27:49.988Z,65.90
2017-04-12T03:28:49.119Z,66.10
2017-04-12T03:29:47.506Z,66.10
2017-04-12T03:30:45.930Z,66.10
2017-04-12T03:31:44.343Z,65.80
2017-04-12T03:32:43.707Z,65.30
2017-04-12T03:33:42.486Z,65.50
2017-04-12T03:34:40.893Z,65.50
2017-04-12T03:35:39.374Z,65.50
2017-04-12T03:36:37.757Z,65.70
2017-04-12T03:37:36.165Z,64.90
2017-04-12T03:38:34.574Z,64.90
2017-04-12T03:39:32.965Z,65.10
2017-04-12T03:40:31.379Z,64.50
2017-04-12T03:41:29.786Z,64.60
2017-04-12T03:42:28.230Z,64.90
2017-04-12T03:43:26.658Z,64.40
2017-04-12T03:44:25.786Z,64.40
2017-04-12T03:45:24.213Z,64.30
2017-04-12T03:46:23.230Z,64.30
2017-04-12T03:47:21.633Z,64.50
2017-04-12T03:48:20.077Z,64.70
2017-04-12T03:49:19.153Z,64.30
2017-04-12T03:50:17.550Z,64.30
2017-04-12T03:51:16.667Z,64.80
2017-04-12T03:52:16.599Z,65.00
2017-04-12T03:53:15.026Z,64.80
2017-04-12T03:54:13.510Z,64.70
2017-04-12T03:55:13.913Z,65.50
2017-04-12T03:56:12.355Z,64.40
2017-04-12T03:57:10.773Z,64.30
2017-04-12T03:58:11.905Z,64.30
2017-04-12T03:59:11.017Z,64.70
2017-04-12T04:00:09.493Z,65.10
2017-04-12T04:01:07.910Z,65.60
2017-04-12T04:02:07.185Z,65.80
2017-04-12T04:03:05.630Z,66.30
2017-04-12T04:04:04.032Z,66.40
2017-04-12T04:05:02.432Z,66.60
2017-04-12T04:06:00.829Z,66.60
2017-04-12T04:06:59.269Z,66.80
2017-04-12T04:07:58.397Z,66.60
2017-04-12T04:08:56.887Z,66.40
2017-04-12T04:09:55.339Z,66.30
2017-04-12T04:10:53.730Z,66.00
2017-04-12T04:11:52.193Z,65.90
2017-04-12T04:12:50.914Z,65.60
2017-04-12T04:13:50.037Z,65.40
2017-04-12T04:14:48.414Z,65.60
2017-04-12T04:15:46.861Z,66.20
2017-04-12T04:16:47.343Z,66.60
2017-04-12T04:17:46.107Z,67.00
2017-04-12T04:18:44.822Z,67.20
2017-04-12T04:19:43.199Z,67.40
2017-04-12T04:20:41.667Z,67.70
2017-04-12T04:21:40.063Z,67.70
2017-04-12T04:22:38.447Z,67.90
2017-04-12T04:23:36.845Z,68.00
2017-04-12T04:24:35.994Z,68.40
2017-04-12T04:25:35.154Z,68.40
2017-04-12T04:26:33.575Z,68.60
2017-04-12T04:27:31.962Z,68.80
2017-04-12T04:28:31.143Z,68.90
2017-04-12T04:29:30.326Z,68.80
2017-04-12T04:30:28.791Z,68.80
2017-04-12T04:31:27.211Z,68.70
2017-04-12T04:32:25.586Z,68.70
2017-04-12T04:33:24.005Z,68.70
2017-04-12T04:34:23.198Z,69.40
2017-04-12T04:35:22.334Z,69.40
2017-04-12T04:36:23.586Z,68.40
2017-04-12T04:37:21.999Z,68.50
2017-04-12T04:38:21.243Z,68.60
2017-04-12T04:39:19.620Z,68.70
2017-04-12T04:40:19.341Z,68.90
2017-04-12T04:41:17.806Z,68.70
2017-04-12T04:42:16.178Z,68.70
2017-04-12T04:43:14.607Z,68.50
2017-04-12T04:44:13.008Z,68.50
2017-04-12T04:45:11.439Z,68.40
2017-04-12T04:46:09.870Z,68.30
2017-04-12T04:47:09.047Z,68.30
2017-04-12T04:48:07.447Z,68.30
2017-04-12T04:49:05.844Z,68.30
2017-04-12T04:50:04.260Z,68.20
2017-04-12T04:51:03.468Z,68.10
2017-04-12T04:52:01.870Z,67.80
2017-04-12T04:53:00.296Z,67.80
2017-04-12T04:53:59.403Z,67.70
2017-04-12T04:54:58.117Z,67.30
2017-04-12T04:55:56.541Z,67.30
2017-04-12T04:56:55.711Z,67.30
2017-04-12T04:57:54.889Z,67.10
2017-04-12T04:58:53.263Z,67.00
2017-04-12T04:59:52.388Z,66.40
2017-04-12T05:00:50.768Z,66.60
2017-04-12T05:01:49.275Z,66.80
2017-04-12T05:02:47.679Z,67.00
2017-04-12T05:03:46.822Z,66.70
2017-04-12T05:04:45.259Z,66.60
2017-04-12T05:05:43.700Z,66.70
2017-04-12T05:06:42.537Z,66.20
2017-04-12T05:07:43.998Z,66.10
2017-04-12T05:08:44.197Z,66.10
2017-04-12T05:09:42.664Z,65.90
2017-04-12T05:10:41.080Z,65.70
2017-04-12T05:11:39.879Z,65.70
2017-04-12T05:12:38.274Z,65.70
2017-04-12T05:13:36.752Z,65.90
2017-04-12T05:14:35.239Z,66.10
2017-04-12T05:15:33.633Z,66.30
2017-04-12T05:16:32.087Z,67.10
2017-04-12T05:17:30.527Z,66.80
2017-04-12T05:18:29.558Z,66.50
2017-04-12T05:19:28.016Z,66.80
2017-04-12T05:20:27.201Z,66.80
2017-04-12T05:21:26.310Z,66.70
2017-04-12T05:22:24.764Z,66.50
2017-04-12T05:23:24.496Z,65.70
2017-04-12T05:24:22.907Z,65.70
2017-04-12T05:25:21.423Z,65.60
2017-04-12T05:26:20.158Z,65.70
2017-04-12T05:27:18.599Z,65.90
2017-04-12T05:28:17.002Z,66.20
2017-04-12T05:29:15.443Z,66.00
2017-04-12T05:30:13.895Z,65.80
2017-04-12T05:31:12.358Z,65.70
2017-04-12T05:32:11.460Z,65.90
2017-04-12T05:33:09.845Z,65.80
2017-04-12T05:34:08.236Z,65.30
2017-04-12T05:35:07.390Z,66.30
2017-04-12T05:36:05.829Z,65.20
2017-04-12T05:37:04.293Z,64.90
2017-04-12T05:38:03.677Z,65.00
2017-04-12T05:39:02.100Z,64.80
2017-04-12T05:40:00.516Z,64.70
2017-04-12T05:40:58.884Z,64.70
2017-04-12T05:41:57.315Z,64.50
2017-04-12T05:42:55.753Z,64.10
2017-04-12T05:43:54.159Z,63.80
2017-04-12T05:44:52.574Z,64.40
2017-04-12T05:45:50.977Z,64.60
2017-04-12T05:46:49.742Z,64.40
2017-04-12T05:47:48.151Z,64.80
2017-04-12T05:48:46.650Z,64.60
2017-04-12T05:49:45.119Z,65.00
2017-04-12T05:50:43.561Z,64.70
2017-04-12T05:51:41.988Z,64.50
2017-04-12T05:52:40.379Z,64.40
2017-04-12T05:53:38.874Z,64.40
2017-04-12T05:54:37.355Z,64.20
2017-04-12T05:55:35.785Z,64.90
2017-04-12T05:56:34.203Z,64.10
2017-04-12T05:57:32.605Z,63.50
2017-04-12T05:58:32.964Z,63.10
2017-04-12T05:59:31.680Z,63.00
2017-04-12T06:00:30.159Z,62.60
2017-04-12T06:01:28.948Z,62.30
2017-04-12T06:02:27.361Z,62.70
2017-04-12T06:03:26.337Z,62.80
2017-04-12T06:04:24.759Z,62.50
2017-04-12T06:05:23.528Z,62.20
2017-04-12T06:06:23.772Z,62.10
2017-04-12T06:07:22.195Z,61.80
2017-04-12T06:08:20.599Z,61.70
2017-04-12T06:09:19.354Z,61.40
2017-04-12T06:10:17.779Z,61.80
2017-04-12T06:11:16.194Z,60.60
2017-04-12T06:12:14.667Z,60.10
2017-04-12T06:13:13.064Z,60.10
2017-04-12T06:14:11.514Z,60.80
2017-04-12T06:15:09.950Z,60.10
2017-04-12T06:16:09.179Z,59.80
2017-04-12T06:17:07.603Z,59.70
2017-04-12T06:18:06.770Z,59.40
2017-04-12T06:19:05.227Z,59.30
2017-04-12T06:20:03.596Z,59.10
2017-04-12T06:21:02.335Z,59.40
2017-04-12T06:22:00.747Z,59.20
2017-04-12T06:22:59.135Z,59.40
2017-04-12T06:23:58.351Z,59.50
2017-04-12T06:24:56.761Z,59.40
2017-04-12T06:25:55.145Z,59.20
2017-04-12T06:26:54.270Z,59.20
2017-04-12T06:27:52.938Z,59.10
2017-04-12T06:28:52.126Z,59.20
2017-04-12T06:29:51.278Z,59.20
2017-04-12T06:30:49.683Z,59.10
2017-04-12T06:31:48.832Z,59.00
2017-04-12T06:32:47.155Z,58.60
2017-04-12T06:33:45.475Z,58.60
2017-04-12T06:34:43.856Z,58.60
2017-04-12T06:35:42.599Z,58.60
2017-04-12T06:36:41.031Z,58.60
2017-04-12T06:37:39.410Z,58.20
2017-04-12T06:38:37.770Z,58.00
2017-04-12T06:39:36.167Z,57.90
2017-04-12T06:40:34.555Z,57.60
2017-04-12T06:41:33.003Z,57.70
2017-04-12T06:42:31.392Z,57.20
2017-04-12T06:43:30.497Z,56.50
2017-04-12T06:44:28.877Z,56.60
2017-04-12T06:45:27.233Z,56.30
2017-04-12T06:46:25.553Z,56.40
2017-04-12T06:47:23.943Z,56.40
2017-04-12T06:48:22.353Z,56.50
2017-04-12T06:49:21.465Z,56.40
2017-04-12T06:50:19.933Z,56.20
2017-04-12T06:51:18.327Z,55.70
2017-04-12T06:52:16.671Z,55.60
2017-04-12T06:53:15.781Z,55.60
2017-04-12T06:54:15.033Z,55.40
2017-04-12T06:55:13.439Z,55.10
2017-04-12T06:56:11.821Z,55.50
2017-04-12T06:57:10.936Z,55.30
2017-04-12T06:58:09.266Z,54.20
2017-04-12T06:59:08.106Z,53.90
2017-04-12T07:00:06.582Z,53.90
2017-04-12T07:01:05.052Z,53.80
2017-04-12T07:02:03.401Z,53.40
2017-04-12T07:03:02.168Z,51.80
2017-04-12T07:04:00.964Z,51.90
2017-04-12T07:05:00.085Z,51.80
2017-04-12T07:05:58.481Z,52.00
2017-04-12T07:06:56.852Z,51.40
2017-04-12T07:07:55.190Z,50.70
2017-04-12T07:08:53.535Z,50.00
2017-04-12T07:09:51.942Z,49.80
2017-04-12T07:10:50.377Z,50.00
2017-04-12T07:11:48.847Z,49.70
2017-04-12T07:12:47.257Z,49.00
2017-04-12T07:13:45.638Z,49.10
2017-04-12T07:14:43.992Z,47.70
2017-04-12T07:15:42.361Z,47.60
2017-04-12T07:16:40.762Z,47.70
2017-04-12T07:17:39.810Z,46.90
2017-04-12T07:18:38.209Z,47.20
2017-04-12T07:19:36.551Z,47.00
2017-04-12T07:20:34.899Z,46.30
2017-04-12T07:21:33.264Z,46.00
2017-04-12T07:22:31.761Z,45.60
2017-04-12T07:23:30.196Z,45.20
2017-04-12T07:24:28.539Z,45.10
2017-04-12T07:25:27.937Z,45.20
2017-04-12T07:26:26.374Z,45.40
2017-04-12T07:27:24.706Z,44.50
2017-04-12T07:28:23.143Z,44.20
2017-04-12T07:29:21.504Z,44.30
2017-04-12T07:30:20.200Z,44.30
2017-04-12T07:31:18.561Z,43.50
2017-04-12T07:32:16.917Z,42.70
2017-04-12T07:33:16.030Z,41.90
2017-04-12T07:34:14.453Z,41.70
2017-04-12T07:35:13.648Z,42.10
2017-04-12T07:36:12.017Z,41.90
2017-04-12T07:37:10.394Z,41.10
2017-04-12T07:38:09.468Z,40.50
2017-04-12T07:39:07.809Z,40.30
2017-04-12T07:40:06.555Z,39.80
2017-04-12T07:41:04.939Z,39.80
2017-04-12T07:42:04.033Z,39.80
2017-04-12T07:43:02.438Z,39.50
2017-04-12T07:44:00.813Z,38.90
2017-04-12T07:44:59.934Z,38.50
2017-04-12T07:45:58.295Z,38.80
2017-04-12T07:46:56.662Z,38.00
2017-04-12T07:47:55.228Z,38.10
2017-04-12T07:48:53.960Z,38.40
2017-04-12T07:49:52.343Z,38.10
2017-04-12T07:50:51.532Z,37.20
2017-04-12T07:51:49.926Z,37.00
2017-04-12T07:52:48.306Z,36.90
2017-04-12T07:53:46.713Z,35.30
2017-04-12T07:54:45.098Z,34.60
2017-04-12T07:55:43.463Z,34.40
2017-04-12T07:56:41.855Z,34.70
2017-04-12T07:57:40.256Z,34.70
2017-04-12T07:58:38.664Z,34.60
2017-04-12T07:59:37.077Z,35.00
2017-04-12T08:00:35.444Z,34.90
2017-04-12T08:01:33.819Z,36.00
2017-04-12T08:02:32.517Z,35.90
2017-04-12T08:03:30.906Z,35.70
2017-04-12T08:04:29.280Z,35.50
2017-04-12T08:05:27.714Z,35.20
2017-04-12T08:06:26.107Z,35.20
2017-04-12T08:07:24.482Z,34.60
2017-04-12T08:08:22.934Z,34.80
2017-04-12T08:09:21.316Z,34.80
2017-04-12T08:10:19.705Z,34.80
2017-04-12T08:11:18.067Z,34.20
2017-04-12T08:12:16.415Z,34.40
2017-04-12T08:13:14.826Z,35.20
2017-04-12T08:14:13.664Z,34.00
2017-04-12T08:15:12.052Z,34.20
2017-04-12T08:16:10.465Z,34.10
2017-04-12T08:17:08.846Z,34.10
2017-04-12T08:18:07.269Z,33.20
2017-04-12T08:19:05.648Z,32.50
2017-04-12T08:20:04.086Z,33.30
2017-04-12T08:21:02.504Z,32.60
2017-04-12T08:22:00.950Z,30.90
2017-04-12T08:22:59.334Z,31.70
2017-04-12T08:23:58.403Z,32.40
2017-04-12T08:24:56.781Z,31.90
2017-04-12T08:25:55.150Z,32.10
2017-04-12T08:26:53.494Z,31.30
2017-04-12T08:27:51.848Z,31.10
2017-04-12T08:28:50.208Z,30.30
2017-04-12T08:29:48.602Z,30.20
2017-04-12T08:30:46.962Z,29.80
2017-04-12T08:31:45.327Z,30.00
2017-04-12T08:32:44.419Z,28.80
2017-04-12T08:33:42.772Z,29.50
2017-04-12T08:34:41.130Z,29.20
2017-04-12T08:35:39.539Z,29.70
2017-04-12T08:36:37.948Z,29.80
2017-04-12T08:37:36.375Z,29.20
2017-04-12T08:38:34.724Z,28.70
2017-04-12T08:39:33.128Z,28.30
2017-04-12T08:40:32.243Z,28.00
2017-04-12T08:41:30.617Z,27.60
2017-04-12T08:42:29.028Z,27.60
2017-04-12T08:43:27.433Z,28.20
2017-04-12T08:44:26.551Z,28.10
2017-04-12T08:45:25.948Z,28.10
2017-04-12T08:46:24.331Z,27.40
2017-04-12T08:47:22.914Z,27.50
2017-04-12T08:48:21.317Z,26.80
2017-04-12T08:49:19.707Z,26.40
2017-04-12T08:50:19.137Z,26.80
2017-04-12T08:51:17.468Z,27.20
2017-04-12T08:52:15.969Z,26.30
2017-04-12T08:53:15.364Z,26.50
2017-04-12T08:54:13.726Z,26.50
2017-04-12T08:55:12.092Z,24.90
2017-04-12T08:56:10.584Z,25.60
2017-04-12T08:57:08.931Z,25.60
2017-04-12T08:58:07.646Z,24.80
2017-04-12T08:59:06.027Z,23.20
2017-04-12T09:00:04.413Z,23.70
2017-04-12T09:01:02.772Z,23.60
2017-04-12T09:02:01.146Z,24.60
2017-04-12T09:02:59.517Z,24.90
2017-04-12T09:03:57.932Z,24.90
2017-04-12T09:04:57.332Z,25.10
2017-04-12T09:05:58.273Z,25.20
2017-04-12T09:06:56.626Z,24.10
2017-04-12T09:07:55.005Z,24.40
2017-04-12T09:08:53.381Z,24.30
2017-04-12T09:09:52.408Z,24.30
2017-04-12T09:10:50.794Z,24.30
2017-04-12T09:11:49.217Z,24.60
2017-04-12T09:12:49.773Z,24.80
2017-04-12T09:13:48.234Z,24.80
2017-04-12T09:14:46.603Z,25.30
2017-04-12T09:15:45.040Z,25.40
2017-04-12T09:16:45.437Z,25.40
2017-04-12T09:17:44.155Z,25.90
2017-04-12T09:18:42.519Z,26.20
2017-04-12T09:19:40.894Z,26.00
2017-04-12T09:20:39.322Z,26.70
2017-04-12T09:21:37.683Z,26.10
2017-04-12T09:22:36.042Z,26.10
2017-04-12T09:23:34.444Z,25.00
2017-04-12T09:24:32.804Z,24.90
2017-04-12T09:25:31.214Z,24.90
2017-04-12T09:26:29.604Z,24.50
2017-04-12T09:27:28.043Z,24.50
2017-04-12T09:28:26.500Z,24.80
2017-04-12T09:29:25.651Z,25.30
2017-04-12T09:30:24.016Z,25.10
2017-04-12T09:31:22.416Z,24.70
2017-04-12T09:32:20.775Z,24.40
2017-04-12T09:33:19.151Z,24.50
2017-04-12T09:34:17.520Z,24.30
2017-04-12T09:35:15.910Z,24.40
2017-04-12T09:36:14.312Z,24.60
2017-04-12T09:37:12.677Z,24.50
2017-04-12T09:38:11.005Z,24.50
2017-04-12T09:39:09.417Z,24.60
2017-04-12T09:40:09.517Z,24.80
2017-04-12T09:41:07.910Z,24.80
2017-04-12T09:42:06.359Z,25.10
2017-04-12T09:43:04.710Z,24.50
2017-04-12T09:44:03.184Z,24.20
2017-04-12T09:45:01.546Z,23.80
2017-04-12T09:45:59.955Z,24.60
2017-04-12T09:46:58.293Z,24.50
2017-04-12T09:47:56.668Z,24.40
2017-04-12T09:48:56.900Z,24.40
2017-04-12T09:49:55.342Z,23.50
2017-04-12T09:50:54.084Z,23.50
2017-04-12T09:51:53.217Z,24.00
2017-04-12T09:52:51.562Z,24.20
2017-04-12T09:53:50.056Z,24.10
2017-04-12T09:54:48.396Z,24.20
2017-04-12T09:55:46.776Z,23.90
2017-04-12T09:56:45.147Z,23.80
2017-04-12T09:57:43.609Z,23.70
2017-04-12T09:58:42.061Z,23.20
2017-04-12T09:59:41.223Z,23.40
2017-04-12T10:00:40.341Z,23.50
2017-04-12T10:01:38.731Z,23.40
2017-04-12T10:02:37.395Z,23.20
2017-04-12T10:03:35.811Z,23.20
2017-04-12T10:04:34.203Z,23.50
2017-04-12T10:05:32.623Z,23.90
2017-04-12T10:06:30.985Z,23.90
2017-04-12T10:07:30.811Z,23.80
2017-04-12T10:08:30.267Z,23.40
2017-04-12T10:09:28.706Z,23.30
2017-04-12T10:10:27.146Z,23.60
2017-04-12T10:11:25.545Z,23.30
2017-04-12T10:12:24.705Z,23.50
2017-04-12T10:13:23.429Z,23.10
2017-04-12T10:14:21.812Z,23.20
2017-04-12T10:15:20.228Z,23.10
2017-04-12T10:16:18.596Z,23.00
2017-04-12T10:17:18.035Z,22.70
2017-04-12T10:18:16.405Z,22.20
2017-04-12T10:19:14.869Z,22.40
2017-04-12T10:20:13.296Z,21.70
2017-04-12T10:21:11.653Z,22.20
2017-04-12T10:22:10.030Z,22.80
2017-04-12T10:23:08.445Z,22.70
2017-04-12T10:24:06.859Z,22.40
2017-04-12T10:25:05.244Z,22.70
2017-04-12T10:26:03.606Z,22.90
2017-04-12T10:27:01.997Z,23.20
2017-04-12T10:28:00.362Z,23.10
2017-04-12T10:28:58.822Z,23.20
2017-04-12T10:29:57.250Z,23.10
2017-04-12T10:30:55.990Z,23.00
2017-04-12T10:31:54.365Z,22.50
2017-04-12T10:32:52.728Z,22.80
2017-04-12T10:33:51.885Z,23.10
2017-04-12T10:34:50.254Z,22.60
2017-04-12T10:35:49.652Z,22.60
2017-04-12T10:36:48.016Z,22.50
2017-04-12T10:37:46.425Z,22.10
2017-04-12T10:38:44.801Z,21.80
2017-04-12T10:39:43.233Z,22.20
2017-04-12T10:40:41.586Z,21.90
2017-04-12T10:41:39.929Z,22.20
2017-04-12T10:42:38.321Z,23.00
2017-04-12T10:43:36.768Z,23.00
2017-04-12T10:44:35.514Z,23.20
2017-04-12T10:45:33.941Z,22.80
2017-04-12T10:46:32.368Z,22.50
2017-04-12T10:47:30.855Z,22.40
2017-04-12T10:48:29.234Z,22.30
2017-04-12T10:49:27.639Z,22.20
2017-04-12T10:50:25.984Z,22.70
2017-04-12T10:51:24.395Z,22.80
2017-04-12T10:52:23.512Z,22.90
2017-04-12T10:53:21.929Z,22.50
2017-04-12T10:54:20.410Z,22.10
2017-04-12T10:55:18.781Z,22.50
2017-04-12T10:56:17.151Z,22.20
2017-04-12T10:57:15.578Z,22.80
2017-04-12T10:58:13.967Z,22.50
2017-04-12T10:59:12.349Z,22.10
2017-04-12T11:00:10.715Z,22.30
2017-04-12T11:01:09.231Z,22.50
2017-04-12T11:02:07.593Z,22.90
2017-04-12T11:03:06.074Z,23.10
2017-04-12T11:04:04.447Z,22.80
2017-04-12T11:05:03.622Z,23.20
2017-04-12T11:06:01.957Z,23.20
2017-04-12T11:07:01.148Z,23.50
2017-04-12T11:07:59.484Z,23.70
2017-04-12T11:08:57.879Z,23.20
2017-04-12T11:09:57.373Z,23.10
2017-04-12T11:10:55.730Z,23.90
2017-04-12T11:11:54.119Z,24.10
2017-04-12T11:12:53.291Z,23.30
2017-04-12T11:13:51.671Z,23.60
2017-04-12T11:14:50.843Z,24.20
2017-04-12T11:15:49.229Z,24.30
2017-04-12T11:16:48.332Z,23.70
2017-04-12T11:17:46.830Z,23.70
2017-04-12T11:18:45.197Z,24.30
2017-04-12T11:19:43.599Z,23.50
2017-04-12T11:20:41.973Z,24.20
2017-04-12T11:21:40.370Z,25.00
2017-04-12T11:22:38.716Z,25.20
2017-04-12T11:23:37.079Z,24.90
2017-04-12T11:24:35.453Z,24.90
2017-04-12T11:25:33.846Z,25.00
2017-04-12T11:26:32.975Z,24.80
2017-04-12T11:27:31.957Z,24.60
2017-04-12T11:28:31.142Z,24.50
2017-04-12T11:29:29.524Z,25.50
2017-04-12T11:30:27.946Z,26.10
2017-04-12T11:31:26.294Z,25.90
2017-04-12T11:32:24.685Z,25.30
2017-04-12T11:33:23.044Z,25.50
2017-04-12T11:34:21.412Z,26.70
2017-04-12T11:35:19.820Z,26.50
2017-04-12T11:36:18.176Z,26.40
2017-04-12T11:37:16.587Z,25.90
2017-04-12T11:38:14.948Z,25.90
2017-04-12T11:39:15.788Z,26.20
2017-04-12T11:40:14.172Z,26.70
2017-04-12T11:41:13.330Z,26.40
2017-04-12T11:42:11.727Z,26.00
2017-04-12T11:43:11.496Z,26.40
2017-04-12T11:44:09.849Z,26.80
2017-04-12T11:45:08.287Z,27.30
2017-04-12T11:46:06.707Z,27.80
2017-04-12T11:47:05.111Z,28.60
2017-04-12T11:48:03.483Z,28.80
2017-04-12T11:49:03.490Z,28.00
2017-04-12T11:50:01.848Z,27.40
2017-04-12T11:51:00.936Z,27.80
2017-04-12T11:51:59.989Z,27.80
2017-04-12T11:52:58.430Z,27.70
2017-04-12T11:53:56.822Z,27.60
2017-04-12T11:54:55.163Z,26.90
2017-04-12T11:55:53.539Z,26.90
2017-04-12T11:56:51.904Z,27.60
2017-04-12T11:57:50.270Z,27.30
2017-04-12T11:58:48.734Z,27.50
2017-04-12T11:59:47.085Z,27.50
2017-04-12T12:00:45.500Z,27.70
2017-04-12T12:01:43.869Z,27.90
2017-04-12T12:02:42.925Z,28.40
2017-04-12T12:03:41.342Z,28.40
2017-04-12T12:04:40.828Z,29.20
2017-04-12T12:05:39.168Z,28.60
2017-04-12T12:06:38.255Z,28.80
2017-04-12T12:07:36.684Z,28.10
2017-04-12T12:08:35.067Z,28.50
2017-04-12T12:09:33.477Z,29.80
2017-04-12T12:10:31.933Z,29.00
2017-04-12T12:11:30.309Z,28.70
2017-04-12T12:12:28.720Z,28.40
2017-04-12T12:13:27.178Z,29.20
2017-04-12T12:14:25.544Z,28.50
2017-04-12T12:15:23.904Z,28.30
2017-04-12T12:16:22.349Z,28.50
2017-04-12T12:17:20.753Z,28.70
2017-04-12T12:18:19.104Z,29.00
2017-04-12T12:19:17.512Z,28.90
2017-04-12T12:20:16.618Z,29.50
2017-04-12T12:21:14.974Z,28.20
2017-04-12T12:22:13.345Z,28.40
2017-04-12T12:23:11.768Z,29.20
2017-04-12T12:24:10.120Z,28.90
2017-04-12T12:25:08.498Z,28.10
2017-04-12T12:26:06.885Z,28.20
2017-04-12T12:27:05.261Z,28.80
2017-04-12T12:28:04.016Z,28.80
2017-04-12T12:29:03.176Z,28.40
2017-04-12T12:30:01.619Z,28.40
2017-04-12T12:30:59.986Z,28.90
2017-04-12T12:31:58.397Z,28.70
2017-04-12T12:32:57.462Z,28.90
2017-04-12T12:33:55.923Z,28.10
2017-04-12T12:34:54.273Z,28.60